sensor_id;sensor_type;location;lat;lon;timestamp;pressure;altitude;pressure_sealevel;temperature;humidity
11053;BME280;55230;42.602;23.470;2023-04-06T00:00:02;93216.53;;;-1.56;100.00
11053;BME280;55230;42.602;23.470;2023-04-06T00:02:30;93239.16;;;-1.62;100.00
11053;BME280;55230;42.602;23.470;2023-04-06T00:04:57;92901.75;;;-4.47;100.00
11053;BME280;55230;42.602;23.470;2023-04-06T00:07:24;93099.41;;;-2.48;100.00
11053;BME280;55230;42.602;23.470;2023-04-06T00:09:53;93068.72;;;-3.08;100.00
11053;BME280;55230;42.602;23.470;2023-04-06T00:12:20;92745.63;;;-4.90;100.00
11053;BME280;55230;42.602;23.470;2023-04-06T00:14:47;93204.41;;;-1.81;100.00
11053;BME280;55230;42.602;23.470;2023-04-06T00:17:14;93155.59;;;-2.51;100.00
11053;BME280;55230;42.602;23.470;2023-04-06T00:19:42;93094.03;;;-2.86;100.00
11053;BME280;55230;42.602;23.470;2023-04-06T00:22:09;92989.06;;;-3.60;100.00
11053;BME280;55230;42.602;23.470;2023-04-06T00:24:36;93231.19;;;-1.97;100.00
11053;BME280;55230;42.602;23.470;2023-04-06T00:27:05;93186.28;;;-2.00;100.00
11053;BME280;55230;42.602;23.470;2023-04-06T00:29:34;93237.59;;;-1.94;100.00
11053;BME280;55230;42.602;23.470;2023-04-06T00:32:02;92833.75;;;-4.42;100.00
11053;BME280;55230;42.602;23.470;2023-04-06T00:34:29;93070.31;;;-2.79;100.00
11053;BME280;55230;42.602;23.470;2023-04-06T00:37:11;92422.88;;;-7.25;100.00
11053;BME280;55230;42.602;23.470;2023-04-06T00:39:38;93253.84;;;-1.89;100.00
11053;BME280;55230;42.602;23.470;2023-04-06T00:42:11;93068.47;;;-2.61;100.00
11053;BME280;55230;42.602;23.470;2023-04-06T00:44:39;92914.91;;;-3.62;100.00
11053;BME280;55230;42.602;23.470;2023-04-06T00:47:07;93181.75;;;-1.93;100.00
11053;BME280;55230;42.602;23.470;2023-04-06T00:49:35;92920.53;;;-3.67;100.00
11053;BME280;55230;42.602;23.470;2023-04-06T00:52:05;93215.69;;;-1.95;100.00
11053;BME280;55230;42.602;23.470;2023-04-06T00:54:32;93191.22;;;-1.78;100.00
11053;BME280;55230;42.602;23.470;2023-04-06T00:57:00;93220.25;;;-1.71;100.00
11053;BME280;55230;42.602;23.470;2023-04-06T00:59:29;93210.84;;;-1.68;100.00
11053;BME280;55230;42.602;23.470;2023-04-06T01:01:56;93197.63;;;-1.58;100.00
11053;BME280;55230;42.602;23.470;2023-04-06T01:04:23;93181.75;;;-1.68;100.00
11053;BME280;55230;42.602;23.470;2023-04-06T01:06:51;93218.03;;;-1.37;100.00
11053;BME280;55230;42.602;23.470;2023-04-06T01:09:18;92725.53;;;-4.37;100.00
11053;BME280;55230;42.602;23.470;2023-04-06T01:11:45;93230.88;;;-1.39;100.00
11053;BME280;55230;42.602;23.470;2023-04-06T01:14:12;93160.63;;;-1.44;100.00
11053;BME280;55230;42.602;23.470;2023-04-06T01:16:41;93139.09;;;-1.35;100.00
11053;BME280;55230;42.602;23.470;2023-04-06T01:19:09;92951.59;;;-2.79;99.51
11053;BME280;55230;42.602;23.470;2023-04-06T01:21:36;93178.72;;;-1.17;99.04
11053;BME280;55230;42.602;23.470;2023-04-06T01:24:06;93141.72;;;-1.28;99.62
11053;BME280;55230;42.602;23.470;2023-04-06T01:26:34;93160.94;;;-1.17;98.94
11053;BME280;55230;42.602;23.470;2023-04-06T01:29:02;92903.38;;;-2.83;98.13
11053;BME280;55230;42.602;23.470;2023-04-06T01:31:32;93147.75;;;-1.28;98.64
11053;BME280;55230;42.602;23.470;2023-04-06T01:34:03;92904.84;;;-3.10;98.24
11053;BME280;55230;42.602;23.470;2023-04-06T01:36:33;93143.22;;;-1.27;99.10
11053;BME280;55230;42.602;23.470;2023-04-06T01:39:00;92995.69;;;-2.69;99.19
11053;BME280;55230;42.602;23.470;2023-04-06T01:41:29;93150.03;;;-1.30;99.47
11053;BME280;55230;42.602;23.470;2023-04-06T01:43:56;93148.88;;;-1.32;99.10
11053;BME280;55230;42.602;23.470;2023-04-06T01:46:23;92835.56;;;-3.35;98.58
11053;BME280;55230;42.602;23.470;2023-04-06T01:48:51;92998.75;;;-2.39;98.27
11053;BME280;55230;42.602;23.470;2023-04-06T01:51:19;93156.81;;;-1.22;98.83
11053;BME280;55230;42.602;23.470;2023-04-06T01:53:50;93189.31;;;-1.17;98.48
11053;BME280;55230;42.602;23.470;2023-04-06T01:56:17;92909.03;;;-2.88;98.37
11053;BME280;55230;42.602;23.470;2023-04-06T01:58:46;92814.47;;;-3.32;98.90
11053;BME280;55230;42.602;23.470;2023-04-06T02:01:13;93181.72;;;-1.16;98.64
11053;BME280;55230;42.602;23.470;2023-04-06T02:03:41;93139.78;;;-1.17;98.71
11053;BME280;55230;42.602;23.470;2023-04-06T02:06:08;93041.38;;;-2.09;98.58
11053;BME280;55230;42.602;23.470;2023-04-06T02:08:36;93014.94;;;-1.98;98.57
11053;BME280;55230;42.602;23.470;2023-04-06T02:11:03;93142.44;;;-1.13;99.25
11053;BME280;55230;42.602;23.470;2023-04-06T02:13:31;93193.44;;;-1.17;98.52
11053;BME280;55230;42.602;23.470;2023-04-06T02:16:01;93045.84;;;-1.74;98.34
11053;BME280;55230;42.602;23.470;2023-04-06T02:18:29;92884.91;;;-3.08;97.84
11053;BME280;55230;42.602;23.470;2023-04-06T02:20:56;92601.06;;;-4.69;97.59
11053;BME280;55230;42.602;23.470;2023-04-06T02:23:24;92889.81;;;-2.68;98.20
11053;BME280;55230;42.602;23.470;2023-04-06T02:25:52;93092.66;;;-1.50;98.27
11053;BME280;55230;42.602;23.470;2023-04-06T02:28:19;93143.19;;;-1.09;97.74
11053;BME280;55230;42.602;23.470;2023-04-06T02:30:49;93151.50;;;-1.07;98.36
11053;BME280;55230;42.602;23.470;2023-04-06T02:33:18;92756.50;;;-3.57;97.36
11053;BME280;55230;42.602;23.470;2023-04-06T02:35:46;93206.66;;;-1.02;98.07
11053;BME280;55230;42.602;23.470;2023-04-06T02:38:13;93152.22;;;-1.03;97.48
11053;BME280;55230;42.602;23.470;2023-04-06T02:40:40;93170.41;;;-1.02;97.71
11053;BME280;55230;42.602;23.470;2023-04-06T02:43:07;92967.78;;;-2.07;97.29
11053;BME280;55230;42.602;23.470;2023-04-06T02:45:42;93040.56;;;-1.71;97.71
11053;BME280;55230;42.602;23.470;2023-04-06T02:48:13;93073.03;;;-1.63;97.38
11053;BME280;55230;42.602;23.470;2023-04-06T02:50:42;93223.31;;;-0.98;97.33
11053;BME280;55230;42.602;23.470;2023-04-06T02:53:09;93122.00;;;-1.02;97.69
11053;BME280;55230;42.602;23.470;2023-04-06T02:55:41;93157.16;;;-1.05;97.41
11053;BME280;55230;42.602;23.470;2023-04-06T02:58:17;93138.25;;;-1.04;97.72
11053;BME280;55230;42.602;23.470;2023-04-06T03:00:47;93098.66;;;-1.36;97.90
11053;BME280;55230;42.602;23.470;2023-04-06T03:03:15;93165.13;;;-1.12;97.89
11053;BME280;55230;42.602;23.470;2023-04-06T03:05:49;92866.06;;;-3.06;97.84
11053;BME280;55230;42.602;23.470;2023-04-06T03:08:16;93101.69;;;-1.48;98.17
11053;BME280;55230;42.602;23.470;2023-04-06T03:10:46;92907.91;;;-2.80;98.06
11053;BME280;55230;42.602;23.470;2023-04-06T03:13:14;93188.94;;;-1.12;98.58
11053;BME280;55230;42.602;23.470;2023-04-06T03:15:42;93164.34;;;-1.13;98.34
11053;BME280;55230;42.602;23.470;2023-04-06T03:18:09;93011.19;;;-2.15;98.54
11053;BME280;55230;42.602;23.470;2023-04-06T03:20:39;93193.06;;;-1.11;98.43
11053;BME280;55230;42.602;23.470;2023-04-06T03:23:08;92949.34;;;-2.28;98.18
11053;BME280;55230;42.602;23.470;2023-04-06T03:25:36;93134.88;;;-1.19;98.50
11053;BME280;55230;42.602;23.470;2023-04-06T03:28:05;93039.06;;;-1.68;98.15
11053;BME280;55230;42.602;23.470;2023-04-06T03:30:35;93089.63;;;-1.56;98.16
11053;BME280;55230;42.602;23.470;2023-04-06T03:33:03;93133.72;;;-1.03;97.62
11053;BME280;55230;42.602;23.470;2023-04-06T03:35:30;93142.81;;;-1.22;98.04
11053;BME280;55230;42.602;23.470;2023-04-06T03:37:58;93062.44;;;-1.53;97.85
11053;BME280;55230;42.602;23.470;2023-04-06T03:40:27;92960.69;;;-2.52;98.16
11053;BME280;55230;42.602;23.470;2023-04-06T03:42:54;93156.78;;;-1.07;97.86
11053;BME280;55230;42.602;23.470;2023-04-06T03:45:22;93038.34;;;-1.97;97.82
11053;BME280;55230;42.602;23.470;2023-04-06T03:47:49;92950.88;;;-2.76;98.02
11053;BME280;55230;42.602;23.470;2023-04-06T03:50:20;93162.09;;;-1.07;98.35
11053;BME280;55230;42.602;23.470;2023-04-06T03:52:48;93182.47;;;-1.04;97.88
11053;BME280;55230;42.602;23.470;2023-04-06T03:55:18;92819.00;;;-3.22;97.69
11053;BME280;55230;42.602;23.470;2023-04-06T03:57:47;93115.31;;;-1.60;97.62
11053;BME280;55230;42.602;23.470;2023-04-06T04:00:17;93164.34;;;-1.02;97.73
11053;BME280;55230;42.602;23.470;2023-04-06T04:02:48;93125.75;;;-0.96;97.23
11053;BME280;55230;42.602;23.470;2023-04-06T04:05:17;92906.38;;;-2.53;97.30
11053;BME280;55230;42.602;23.470;2023-04-06T04:07:45;92922.97;;;-2.70;97.07
11053;BME280;55230;42.602;23.470;2023-04-06T04:10:12;93062.44;;;-1.63;97.21
11053;BME280;55230;42.602;23.470;2023-04-06T04:12:39;92753.84;;;-3.42;96.74
11053;BME280;55230;42.602;23.470;2023-04-06T04:15:08;93177.53;;;-0.92;96.41
11053;BME280;55230;42.602;23.470;2023-04-06T04:17:36;93124.66;;;-0.99;97.19
11053;BME280;55230;42.602;23.470;2023-04-06T04:20:04;93062.38;;;-1.28;96.64
11053;BME280;55230;42.602;23.470;2023-04-06T04:22:32;92941.06;;;-2.37;96.41
11053;BME280;55230;42.602;23.470;2023-04-06T04:25:00;93030.69;;;-1.39;95.85
11053;BME280;55230;42.602;23.470;2023-04-06T04:27:30;92920.31;;;-2.24;95.86
11053;BME280;55230;42.602;23.470;2023-04-06T04:29:57;93156.63;;;-0.58;95.73
11053;BME280;55230;42.602;23.470;2023-04-06T04:32:26;93125.59;;;-0.54;95.44
11053;BME280;55230;42.602;23.470;2023-04-06T04:34:53;93148.63;;;-0.44;95.15
11053;BME280;55230;42.602;23.470;2023-04-06T04:37:23;93170.19;;;-0.39;94.14
11053;BME280;55230;42.602;23.470;2023-04-06T04:39:51;92837.00;;;-2.50;93.68
11053;BME280;55230;42.602;23.470;2023-04-06T04:42:18;92840.72;;;-2.23;93.51
11053;BME280;55230;42.602;23.470;2023-04-06T04:44:45;92789.56;;;-2.71;93.09
11053;BME280;55230;42.602;23.470;2023-04-06T04:47:12;93156.84;;;-0.21;93.37
11053;BME280;55230;42.602;23.470;2023-04-06T04:49:40;93137.84;;;-0.06;92.83
11053;BME280;55230;42.602;23.470;2023-04-06T04:52:08;93019.91;;;-0.96;92.54
11053;BME280;55230;42.602;23.470;2023-04-06T04:54:35;92904.34;;;-1.89;92.09
11053;BME280;55230;42.602;23.470;2023-04-06T04:57:03;92772.16;;;-2.51;91.66
11053;BME280;55230;42.602;23.470;2023-04-06T04:59:30;93134.00;;;-0.01;92.13
11053;BME280;55230;42.602;23.470;2023-04-06T05:01:57;93131.28;;;0.10;91.81
11053;BME280;55230;42.602;23.470;2023-04-06T05:04:24;92686.78;;;-3.06;91.19
11053;BME280;55230;42.602;23.470;2023-04-06T05:07:03;93134.34;;;0.05;90.69
11053;BME280;55230;42.602;23.470;2023-04-06T05:09:31;93135.00;;;0.19;90.73
11053;BME280;55230;42.602;23.470;2023-04-06T05:11:58;93039.28;;;-0.45;91.00
11053;BME280;55230;42.602;23.470;2023-04-06T05:14:26;93140.31;;;0.19;90.12
11053;BME280;55230;42.602;23.470;2023-04-06T05:16:53;92717.53;;;-2.54;89.94
11053;BME280;55230;42.602;23.470;2023-04-06T05:19:20;93161.38;;;0.37;89.23
11053;BME280;55230;42.602;23.470;2023-04-06T05:21:47;93123.94;;;0.28;89.57
11053;BME280;55230;42.602;23.470;2023-04-06T05:24:16;93079.03;;;0.10;88.99
11053;BME280;55230;42.602;23.470;2023-04-06T05:26:43;93070.25;;;-0.31;88.68
11053;BME280;55230;42.602;23.470;2023-04-06T05:29:10;93012.31;;;-0.29;88.64
11053;BME280;55230;42.602;23.470;2023-04-06T05:31:37;93140.03;;;0.54;87.82
11053;BME280;55230;42.602;23.470;2023-04-06T05:34:05;93052.66;;;-0.04;88.47
11053;BME280;55230;42.602;23.470;2023-04-06T05:36:32;93099.53;;;0.50;88.83
11053;BME280;55230;42.602;23.470;2023-04-06T05:38:59;93147.84;;;0.72;87.26
11053;BME280;55230;42.602;23.470;2023-04-06T05:41:30;93146.28;;;0.74;87.56
11053;BME280;55230;42.602;23.470;2023-04-06T05:44:00;92924.13;;;-0.70;87.76
11053;BME280;55230;42.602;23.470;2023-04-06T05:46:27;93167.63;;;0.67;88.04
11053;BME280;55230;42.602;23.470;2023-04-06T05:48:55;92779.19;;;-1.48;87.62
11053;BME280;55230;42.602;23.470;2023-04-06T05:51:22;93159.56;;;0.74;87.81
11053;BME280;55230;42.602;23.470;2023-04-06T05:53:49;93132.41;;;0.60;88.42
11053;BME280;55230;42.602;23.470;2023-04-06T05:56:17;93160.47;;;0.57;89.16
11053;BME280;55230;42.602;23.470;2023-04-06T05:58:45;93024.25;;;-0.04;89.12
11053;BME280;55230;42.602;23.470;2023-04-06T06:01:13;93150.63;;;0.58;90.17
11053;BME280;55230;42.602;23.470;2023-04-06T06:03:45;92908.44;;;-1.71;90.23
11053;BME280;55230;42.602;23.470;2023-04-06T06:09:17;92988.28;;;-0.52;92.14
11053;BME280;55230;42.602;23.470;2023-04-06T06:12:05;93129.44;;;0.54;92.93
11053;BME280;55230;42.602;23.470;2023-04-06T06:14:37;93058.03;;;-0.15;91.69
11053;BME280;55230;42.602;23.470;2023-04-06T06:17:05;93118.75;;;0.61;92.28
11053;BME280;55230;42.602;23.470;2023-04-06T06:19:39;93060.88;;;0.09;91.01
11053;BME280;55230;42.602;23.470;2023-04-06T06:22:17;92906.50;;;-0.91;90.26
11053;BME280;55230;42.602;23.470;2023-04-06T06:24:50;92606.50;;;-2.91;90.13
11053;BME280;55230;42.602;23.470;2023-04-06T06:27:22;93019.16;;;0.16;91.48
11053;BME280;55230;42.602;23.470;2023-04-06T06:30:01;93003.56;;;-0.19;90.66
11053;BME280;55230;42.602;23.470;2023-04-06T06:32:34;93091.59;;;-0.01;91.53
11053;BME280;55230;42.602;23.470;2023-04-06T06:35:02;93001.94;;;-0.06;91.38
11053;BME280;55230;42.602;23.470;2023-04-06T06:37:35;93123.09;;;0.85;90.92
11053;BME280;55230;42.602;23.470;2023-04-06T06:40:02;93031.13;;;0.31;90.24
11053;BME280;55230;42.602;23.470;2023-04-06T06:42:29;93137.50;;;0.84;91.77
11053;BME280;55230;42.602;23.470;2023-04-06T06:44:57;93124.16;;;0.91;90.79
11053;BME280;55230;42.602;23.470;2023-04-06T06:47:25;93011.69;;;0.04;91.90
11053;BME280;55230;42.602;23.470;2023-04-06T06:49:53;93117.59;;;1.03;92.45
11053;BME280;55230;42.602;23.470;2023-04-06T06:52:20;92895.56;;;-0.45;90.84
11053;BME280;55230;42.602;23.470;2023-04-06T06:54:48;93127.53;;;0.95;91.58
11053;BME280;55230;42.602;23.470;2023-04-06T06:57:16;93025.91;;;0.61;92.26
11053;BME280;55230;42.602;23.470;2023-04-06T06:59:43;92754.28;;;-1.02;91.70
11053;BME280;55230;42.602;23.470;2023-04-06T07:02:13;93120.25;;;1.37;90.28
11053;BME280;55230;42.602;23.470;2023-04-06T07:04:42;93133.19;;;1.35;90.93
11053;BME280;55230;42.602;23.470;2023-04-06T07:07:12;93124.66;;;1.16;91.49
11053;BME280;55230;42.602;23.470;2023-04-06T07:09:42;92949.56;;;0.09;91.48
11053;BME280;55230;42.602;23.470;2023-04-06T07:12:12;93011.63;;;0.85;90.29
11053;BME280;55230;42.602;23.470;2023-04-06T07:14:40;92756.75;;;-0.81;89.14
11053;BME280;55230;42.602;23.470;2023-04-06T07:17:07;92807.69;;;-0.33;88.70
11053;BME280;55230;42.602;23.470;2023-04-06T07:19:35;93177.47;;;1.75;89.68
11053;BME280;55230;42.602;23.470;2023-04-06T07:22:03;93165.59;;;1.86;89.29
11053;BME280;55230;42.602;23.470;2023-04-06T07:24:31;92946.94;;;0.42;88.65
11053;BME280;55230;42.602;23.470;2023-04-06T07:26:58;92889.63;;;-0.16;89.57
11053;BME280;55230;42.602;23.470;2023-04-06T07:29:28;93136.53;;;1.99;90.15
11053;BME280;55230;42.602;23.470;2023-04-06T07:31:56;93098.56;;;1.72;88.29
11053;BME280;55230;42.602;23.470;2023-04-06T07:34:29;93122.69;;;1.84;86.94
11053;BME280;55230;42.602;23.470;2023-04-06T07:36:57;93189.88;;;2.15;89.20
11053;BME280;55230;42.602;23.470;2023-04-06T07:39:25;92989.38;;;1.06;85.68
11053;BME280;55230;42.602;23.470;2023-04-06T07:41:53;92720.34;;;-0.74;86.79
11053;BME280;55230;42.602;23.470;2023-04-06T07:44:20;93001.72;;;0.89;86.96
11053;BME280;55230;42.602;23.470;2023-04-06T07:46:47;92888.28;;;0.37;86.20
11053;BME280;55230;42.602;23.470;2023-04-06T07:49:14;92683.69;;;-0.75;87.34
11053;BME280;55230;42.602;23.470;2023-04-06T07:51:42;93081.72;;;1.82;87.00
11053;BME280;55230;42.602;23.470;2023-04-06T07:54:09;93153.56;;;2.05;88.14
11053;BME280;55230;42.602;23.470;2023-04-06T07:56:38;92587.00;;;-1.13;87.89
11053;BME280;55230;42.602;23.470;2023-04-06T07:59:05;93034.06;;;1.68;83.71
11053;BME280;55230;42.602;23.470;2023-04-06T08:01:32;92978.81;;;1.02;86.17
11053;BME280;55230;42.602;23.470;2023-04-06T08:03:59;92750.31;;;-0.13;84.95
11053;BME280;55230;42.602;23.470;2023-04-06T08:06:27;93058.75;;;1.95;84.09
11053;BME280;55230;42.602;23.470;2023-04-06T08:08:55;93110.34;;;2.47;84.70
11053;BME280;55230;42.602;23.470;2023-04-06T08:11:25;93148.00;;;2.46;85.42
11053;BME280;55230;42.602;23.470;2023-04-06T08:13:53;93186.06;;;2.16;83.79
11053;BME280;55230;42.602;23.470;2023-04-06T08:16:21;92909.97;;;0.88;84.61
11053;BME280;55230;42.602;23.470;2023-04-06T08:18:48;93114.16;;;3.15;85.86
11053;BME280;55230;42.602;23.470;2023-04-06T08:21:15;93016.78;;;2.06;81.39
11053;BME280;55230;42.602;23.470;2023-04-06T08:23:42;92775.53;;;0.29;81.80
11053;BME280;55230;42.602;23.470;2023-04-06T08:26:09;93112.03;;;2.84;83.24
11053;BME280;55230;42.602;23.470;2023-04-06T08:28:36;92774.78;;;-0.02;82.21
11053;BME280;55230;42.602;23.470;2023-04-06T08:31:05;93116.47;;;2.90;81.96
11053;BME280;55230;42.602;23.470;2023-04-06T08:33:33;92891.06;;;1.13;81.52
11053;BME280;55230;42.602;23.470;2023-04-06T08:36:07;93010.53;;;2.16;80.34
11053;BME280;55230;42.602;23.470;2023-04-06T08:38:35;93118.78;;;2.88;82.32
11053;BME280;55230;42.602;23.470;2023-04-06T08:41:07;92514.13;;;-1.52;80.75
11053;BME280;55230;42.602;23.470;2023-04-06T08:43:41;92777.50;;;0.74;81.41
11053;BME280;55230;42.602;23.470;2023-04-06T08:46:13;93075.59;;;3.00;79.72
11053;BME280;55230;42.602;23.470;2023-04-06T08:48:42;92912.81;;;2.00;78.99
11053;BME280;55230;42.602;23.470;2023-04-06T08:51:09;92893.53;;;2.16;77.74
11053;BME280;55230;42.602;23.470;2023-04-06T08:53:37;93117.97;;;3.34;76.51
11053;BME280;55230;42.602;23.470;2023-04-06T08:56:05;92996.94;;;3.15;76.91
11053;BME280;55230;42.602;23.470;2023-04-06T08:58:34;92954.09;;;3.78;79.81
11053;BME280;55230;42.602;23.470;2023-04-06T09:01:02;93114.41;;;4.31;71.00
11053;BME280;55230;42.602;23.470;2023-04-06T09:03:33;93124.31;;;4.15;73.12
11053;BME280;55230;42.602;23.470;2023-04-06T09:06:01;92887.66;;;2.05;72.72
11053;BME280;55230;42.602;23.470;2023-04-06T09:08:29;92780.03;;;1.74;71.25
11053;BME280;55230;42.602;23.470;2023-04-06T09:10:56;92857.84;;;1.94;70.23
11053;BME280;55230;42.602;23.470;2023-04-06T09:13:23;93061.78;;;3.64;68.97
11053;BME280;55230;42.602;23.470;2023-04-06T09:15:58;92910.47;;;2.45;71.40
11053;BME280;55230;42.602;23.470;2023-04-06T09:18:29;93159.97;;;4.05;69.26
11053;BME280;55230;42.602;23.470;2023-04-06T09:20:59;93027.78;;;3.32;70.90
11053;BME280;55230;42.602;23.470;2023-04-06T09:23:26;93018.75;;;3.98;69.81
11053;BME280;55230;42.602;23.470;2023-04-06T09:26:07;93082.56;;;3.89;69.87
11053;BME280;55230;42.602;23.470;2023-04-06T09:28:45;93113.72;;;4.11;75.07
11053;BME280;55230;42.602;23.470;2023-04-06T09:31:13;93102.75;;;4.41;70.38
11053;BME280;55230;42.602;23.470;2023-04-06T09:33:43;93103.09;;;5.04;67.29
11053;BME280;55230;42.602;23.470;2023-04-06T09:36:12;93083.59;;;4.11;69.01
11053;BME280;55230;42.602;23.470;2023-04-06T09:38:52;92771.59;;;2.34;67.76
11053;BME280;55230;42.602;23.470;2023-04-06T09:41:24;93133.06;;;4.96;66.07
11053;BME280;55230;42.602;23.470;2023-04-06T09:43:51;92991.16;;;4.20;65.88
11053;BME280;55230;42.602;23.470;2023-04-06T09:46:21;93105.59;;;5.11;66.46
11053;BME280;55230;42.602;23.470;2023-04-06T09:48:48;93100.56;;;5.70;64.27
11053;BME280;55230;42.602;23.470;2023-04-06T09:51:18;92977.34;;;4.83;62.50
11053;BME280;55230;42.602;23.470;2023-04-06T09:53:48;92973.75;;;4.00;67.55
11053;BME280;55230;42.602;23.470;2023-04-06T09:56:22;93102.13;;;4.98;64.77
11053;BME280;55230;42.602;23.470;2023-04-06T09:58:54;93118.16;;;4.34;65.83
11053;BME280;55230;42.602;23.470;2023-04-06T10:01:26;93028.25;;;4.31;66.60
11053;BME280;55230;42.602;23.470;2023-04-06T10:03:58;93114.28;;;4.99;63.40
11053;BME280;55230;42.602;23.470;2023-04-06T10:06:33;93162.22;;;4.90;62.60
11053;BME280;55230;42.602;23.470;2023-04-06T10:09:02;93127.84;;;4.76;62.74
11053;BME280;55230;42.602;23.470;2023-04-06T10:11:31;93061.53;;;4.58;63.35
11053;BME280;55230;42.602;23.470;2023-04-06T10:13:58;93065.28;;;4.45;65.61
11053;BME280;55230;42.602;23.470;2023-04-06T10:16:25;92984.06;;;3.66;67.75
11053;BME280;55230;42.602;23.470;2023-04-06T10:18:58;92978.66;;;3.69;65.75
11053;BME280;55230;42.602;23.470;2023-04-06T10:21:30;93036.06;;;4.54;66.23
11053;BME280;55230;42.602;23.470;2023-04-06T10:23:59;93011.16;;;4.44;62.11
11053;BME280;55230;42.602;23.470;2023-04-06T10:26:27;93089.09;;;5.00;62.19
11053;BME280;55230;42.602;23.470;2023-04-06T10:29:03;93079.66;;;4.96;60.55
11053;BME280;55230;42.602;23.470;2023-04-06T10:31:42;92534.03;;;0.62;60.78
11053;BME280;55230;42.602;23.470;2023-04-06T10:34:11;92545.72;;;0.88;59.56
11053;BME280;55230;42.602;23.470;2023-04-06T10:36:47;92691.66;;;1.70;61.96
11053;BME280;55230;42.602;23.470;2023-04-06T10:39:24;92825.09;;;2.75;62.10
11053;BME280;55230;42.602;23.470;2023-04-06T10:42:06;93093.31;;;4.69;65.48
11053;BME280;55230;42.602;23.470;2023-04-06T10:44:42;93104.81;;;4.34;63.31
11053;BME280;55230;42.602;23.470;2023-04-06T10:47:22;92966.13;;;3.50;62.82
11053;BME280;55230;42.602;23.470;2023-04-06T10:50:00;93099.38;;;4.21;65.83
11053;BME280;55230;42.602;23.470;2023-04-06T10:52:42;93059.03;;;4.51;65.21
11053;BME280;55230;42.602;23.470;2023-04-06T10:55:22;92932.97;;;2.99;62.75
11053;BME280;55230;42.602;23.470;2023-04-06T10:57:58;93101.97;;;4.09;64.71
11053;BME280;55230;42.602;23.470;2023-04-06T11:00:32;93118.13;;;4.18;65.45
11053;BME280;55230;42.602;23.470;2023-04-06T11:03:02;93083.22;;;4.28;66.50
11053;BME280;55230;42.602;23.470;2023-04-06T11:05:33;92799.13;;;2.63;62.16
11053;BME280;55230;42.602;23.470;2023-04-06T11:08:07;93086.13;;;4.34;62.21
11053;BME280;55230;42.602;23.470;2023-04-06T11:10:37;92979.50;;;3.82;64.87
11053;BME280;55230;42.602;23.470;2023-04-06T11:13:06;93058.25;;;4.83;68.09
11053;BME280;55230;42.602;23.470;2023-04-06T11:15:34;93091.19;;;5.21;62.62
11053;BME280;55230;42.602;23.470;2023-04-06T11:18:06;92980.91;;;4.19;61.36
11053;BME280;55230;42.602;23.470;2023-04-06T11:20:36;92983.09;;;4.52;62.09
11053;BME280;55230;42.602;23.470;2023-04-06T11:23:05;92724.06;;;2.52;62.87
11053;BME280;55230;42.602;23.470;2023-04-06T11:25:35;93024.78;;;5.07;61.92
11053;BME280;55230;42.602;23.470;2023-04-06T11:28:02;93066.31;;;5.24;63.57
11053;BME280;55230;42.602;23.470;2023-04-06T11:30:30;92993.84;;;4.94;60.49
11053;BME280;55230;42.602;23.470;2023-04-06T11:33:00;93028.72;;;4.74;63.52
11053;BME280;55230;42.602;23.470;2023-04-06T11:35:30;92692.53;;;2.18;64.92
11053;BME280;55230;42.602;23.470;2023-04-06T11:37:58;92773.19;;;2.67;65.18
11053;BME280;55230;42.602;23.470;2023-04-06T11:40:27;93076.09;;;4.06;65.13
11053;BME280;55230;42.602;23.470;2023-04-06T11:42:56;93071.97;;;4.21;65.51
11053;BME280;55230;42.602;23.470;2023-04-06T11:45:23;92823.44;;;2.97;67.00
11053;BME280;55230;42.602;23.470;2023-04-06T11:48:00;92901.84;;;3.64;63.99
11053;BME280;55230;42.602;23.470;2023-04-06T11:50:32;93012.41;;;4.08;63.07
11053;BME280;55230;42.602;23.470;2023-04-06T11:53:00;93057.03;;;4.39;63.71
11053;BME280;55230;42.602;23.470;2023-04-06T11:55:36;92610.63;;;1.78;64.56
11053;BME280;55230;42.602;23.470;2023-04-06T11:58:03;92981.56;;;4.96;64.60
11053;BME280;55230;42.602;23.470;2023-04-06T12:00:30;92592.41;;;2.12;61.26
11053;BME280;55230;42.602;23.470;2023-04-06T12:03:00;92722.69;;;2.64;60.88
11053;BME280;55230;42.602;23.470;2023-04-06T12:05:27;93050.41;;;5.05;62.04
11053;BME280;55230;42.602;23.470;2023-04-06T12:07:54;92852.19;;;3.70;59.76
11053;BME280;55230;42.602;23.470;2023-04-06T12:10:22;92979.22;;;4.41;61.36
11053;BME280;55230;42.602;23.470;2023-04-06T12:12:50;93055.94;;;4.69;60.69
11053;BME280;55230;42.602;23.470;2023-04-06T12:15:17;93054.94;;;4.47;63.26
11053;BME280;55230;42.602;23.470;2023-04-06T12:17:44;92999.31;;;3.97;65.84
11053;BME280;55230;42.602;23.470;2023-04-06T12:20:11;93065.50;;;4.50;65.56
11053;BME280;55230;42.602;23.470;2023-04-06T12:22:38;92957.31;;;3.53;65.70
11053;BME280;55230;42.602;23.470;2023-04-06T12:25:06;92952.69;;;3.37;66.50
11053;BME280;55230;42.602;23.470;2023-04-06T12:27:33;93083.53;;;4.14;66.46
11053;BME280;55230;42.602;23.470;2023-04-06T12:30:01;93042.91;;;3.91;67.76
11053;BME280;55230;42.602;23.470;2023-04-06T12:32:29;93019.41;;;3.86;70.42
11053;BME280;55230;42.602;23.470;2023-04-06T12:34:55;92966.22;;;3.79;66.28
11053;BME280;55230;42.602;23.470;2023-04-06T12:37:23;92983.22;;;4.01;66.53
11053;BME280;55230;42.602;23.470;2023-04-06T12:39:50;93025.44;;;4.22;64.71
11053;BME280;55230;42.602;23.470;2023-04-06T12:42:17;92985.31;;;3.77;66.38
11053;BME280;55230;42.602;23.470;2023-04-06T12:44:44;92892.66;;;3.49;65.21
11053;BME280;55230;42.602;23.470;2023-04-06T12:47:13;92838.13;;;3.21;64.72
11053;BME280;55230;42.602;23.470;2023-04-06T12:49:41;93044.59;;;4.49;65.64
11053;BME280;55230;42.602;23.470;2023-04-06T12:52:09;92804.06;;;3.13;62.27
11053;BME280;55230;42.602;23.470;2023-04-06T12:54:36;93024.69;;;4.66;63.58
11053;BME280;55230;42.602;23.470;2023-04-06T12:57:03;92992.88;;;4.88;62.63
11053;BME280;55230;42.602;23.470;2023-04-06T12:59:29;92929.03;;;4.20;62.63
11053;BME280;55230;42.602;23.470;2023-04-06T13:02:00;93019.38;;;4.95;62.90
11053;BME280;55230;42.602;23.470;2023-04-06T13:04:29;92895.38;;;4.10;61.47
11053;BME280;55230;42.602;23.470;2023-04-06T13:06:56;93011.06;;;4.48;62.65